sensor_id;sensor_type;location;lat;lon;timestamp;P1;durP1;ratioP1;P2;durP2;ratioP2
32214;SDS011;18708;53.124;23.190;2022-11-15T00:01:08;36.65;;;20.58;;
32214;SDS011;18708;53.124;23.190;2022-11-15T00:03:35;32.75;;;19.42;;
32214;SDS011;18708;53.124;23.190;2022-11-15T00:06:01;34.90;;;20.33;;
32214;SDS011;18708;53.124;23.190;2022-11-15T00:08:31;35.10;;;19.98;;
32214;SDS011;18708;53.124;23.190;2022-11-15T00:10:58;34.00;;;18.55;;
32214;SDS011;18708;53.124;23.190;2022-11-15T00:13:26;34.13;;;18.73;;
32214;SDS011;18708;53.124;23.190;2022-11-15T00:15:51;36.85;;;19.90;;
32214;SDS011;18708;53.124;23.190;2022-11-15T00:18:17;34.80;;;20.33;;
32214;SDS011;18708;53.124;23.190;2022-11-15T00:20:43;33.47;;;19.77;;
32214;SDS011;18708;53.124;23.190;2022-11-15T00:23:09;34.30;;;18.42;;
32214;SDS011;18708;53.124;23.190;2022-11-15T00:25:35;32.47;;;18.60;;
32214;SDS011;18708;53.124;23.190;2022-11-15T00:28:01;36.78;;;20.40;;
32214;SDS011;18708;53.124;23.190;2022-11-15T00:30:27;31.98;;;20.15;;
32214;SDS011;18708;53.124;23.190;2022-11-15T00:32:53;33.20;;;19.33;;
32214;SDS011;18708;53.124;23.190;2022-11-15T00:35:19;29.52;;;17.42;;
32214;SDS011;18708;53.124;23.190;2022-11-15T00:37:46;30.55;;;18.30;;
32214;SDS011;18708;53.124;23.190;2022-11-15T00:40:12;33.20;;;18.98;;
32214;SDS011;18708;53.124;23.190;2022-11-15T00:42:39;38.53;;;20.10;;
32214;SDS011;18708;53.124;23.190;2022-11-15T00:45:05;34.63;;;19.15;;
32214;SDS011;18708;53.124;23.190;2022-11-15T00:47:32;35.42;;;20.40;;
32214;SDS011;18708;53.124;23.190;2022-11-15T00:49:57;33.40;;;19.55;;
32214;SDS011;18708;53.124;23.190;2022-11-15T00:52:23;36.03;;;19.90;;
32214;SDS011;18708;53.124;23.190;2022-11-15T00:54:49;34.92;;;20.58;;
32214;SDS011;18708;53.124;23.190;2022-11-15T00:57:14;34.75;;;19.67;;
32214;SDS011;18708;53.124;23.190;2022-11-15T00:59:40;35.80;;;19.55;;
32214;SDS011;18708;53.124;23.190;2022-11-15T01:02:05;37.03;;;22.40;;
32214;SDS011;18708;53.124;23.190;2022-11-15T01:04:31;35.92;;;21.23;;
32214;SDS011;18708;53.124;23.190;2022-11-15T01:06:57;32.60;;;19.63;;
32214;SDS011;18708;53.124;23.190;2022-11-15T01:09:24;39.35;;;20.67;;
32214;SDS011;18708;53.124;23.190;2022-11-15T01:11:50;36.90;;;21.42;;
32214;SDS011;18708;53.124;23.190;2022-11-15T01:14:16;35.95;;;19.65;;
32214;SDS011;18708;53.124;23.190;2022-11-15T01:16:42;36.90;;;21.92;;
32214;SDS011;18708;53.124;23.190;2022-11-15T01:19:08;35.72;;;20.65;;
32214;SDS011;18708;53.124;23.190;2022-11-15T01:21:33;35.05;;;20.73;;
32214;SDS011;18708;53.124;23.190;2022-11-15T01:23:59;35.03;;;20.25;;
32214;SDS011;18708;53.124;23.190;2022-11-15T01:26:24;33.03;;;19.70;;
32214;SDS011;18708;53.124;23.190;2022-11-15T01:28:50;35.13;;;20.55;;
32214;SDS011;18708;53.124;23.190;2022-11-15T01:31:17;30.13;;;18.92;;
32214;SDS011;18708;53.124;23.190;2022-11-15T01:33:44;36.00;;;20.92;;
32214;SDS011;18708;53.124;23.190;2022-11-15T01:36:11;32.97;;;20.15;;
32214;SDS011;18708;53.124;23.190;2022-11-15T01:38:47;32.53;;;19.67;;
32214;SDS011;18708;53.124;23.190;2022-11-15T01:41:29;39.25;;;22.88;;
32214;SDS011;18708;53.124;23.190;2022-11-15T01:47:12;45.80;;;24.90;;
32214;SDS011;18708;53.124;23.190;2022-11-15T01:49:55;35.65;;;20.42;;
32214;SDS011;18708;53.124;23.190;2022-11-15T01:52:22;35.38;;;20.15;;
32214;SDS011;18708;53.124;23.190;2022-11-15T01:54:53;42.05;;;21.52;;
32214;SDS011;18708;53.124;23.190;2022-11-15T01:57:41;36.15;;;20.73;;
32214;SDS011;18708;53.124;23.190;2022-11-15T02:00:09;32.63;;;20.20;;
32214;SDS011;18708;53.124;23.190;2022-11-15T02:02:36;34.10;;;20.83;;
32214;SDS011;18708;53.124;23.190;2022-11-15T02:05:03;35.08;;;20.75;;
32214;SDS011;18708;53.124;23.190;2022-11-15T02:07:29;35.25;;;21.95;;
32214;SDS011;18708;53.124;23.190;2022-11-15T02:10:02;32.47;;;20.35;;
32214;SDS011;18708;53.124;23.190;2022-11-15T02:12:33;40.13;;;22.83;;
32214;SDS011;18708;53.124;23.190;2022-11-15T02:14:59;34.00;;;20.55;;
32214;SDS011;18708;53.124;23.190;2022-11-15T02:17:40;39.25;;;22.75;;
32214;SDS011;18708;53.124;23.190;2022-11-15T02:23:13;52.72;;;26.85;;
32214;SDS011;18708;53.124;23.190;2022-11-15T02:26:07;46.25;;;26.58;;
32214;SDS011;18708;53.124;23.190;2022-11-15T02:33:52;48.33;;;26.85;;
32214;SDS011;18708;53.124;23.190;2022-11-15T02:36:54;48.85;;;28.15;;
32214;SDS011;18708;53.124;23.190;2022-11-15T02:42:35;47.45;;;26.90;;
32214;SDS011;18708;53.124;23.190;2022-11-15T02:45:25;48.75;;;29.20;;
32214;SDS011;18708;53.124;23.190;2022-11-15T02:50:22;48.80;;;27.40;;
32214;SDS011;18708;53.124;23.190;2022-11-15T02:52:51;43.65;;;26.98;;
32214;SDS011;18708;53.124;23.190;2022-11-15T02:55:33;44.85;;;27.60;;
32214;SDS011;18708;53.124;23.190;2022-11-15T03:01:02;47.67;;;28.58;;
32214;SDS011;18708;53.124;23.190;2022-11-15T03:06:45;44.63;;;28.40;;
32214;SDS011;18708;53.124;23.190;2022-11-15T03:12:02;45.85;;;27.30;;
32214;SDS011;18708;53.124;23.190;2022-11-15T03:14:56;44.95;;;26.80;;
32214;SDS011;18708;53.124;23.190;2022-11-15T03:17:27;43.03;;;28.17;;
32214;SDS011;18708;53.124;23.190;2022-11-15T03:19:59;44.83;;;27.70;;
32214;SDS011;18708;53.124;23.190;2022-11-15T03:24:58;43.90;;;26.80;;
32214;SDS011;18708;53.124;23.190;2022-11-15T03:27:28;44.85;;;27.52;;
32214;SDS011;18708;53.124;23.190;2022-11-15T03:30:08;43.25;;;27.48;;
32214;SDS011;18708;53.124;23.190;2022-11-15T03:32:36;45.83;;;28.00;;
32214;SDS011;18708;53.124;23.190;2022-11-15T03:35:06;47.20;;;28.75;;
32214;SDS011;18708;53.124;23.190;2022-11-15T03:40:09;45.88;;;26.42;;
32214;SDS011;18708;53.124;23.190;2022-11-15T03:45:26;53.28;;;30.17;;
32214;SDS011;18708;53.124;23.190;2022-11-15T03:47:59;51.95;;;29.77;;
32214;SDS011;18708;53.124;23.190;2022-11-15T03:50:29;55.50;;;31.42;;
32214;SDS011;18708;53.124;23.190;2022-11-15T03:52:55;52.80;;;30.23;;
32214;SDS011;18708;53.124;23.190;2022-11-15T03:55:21;52.00;;;30.45;;
32214;SDS011;18708;53.124;23.190;2022-11-15T03:57:48;46.65;;;28.35;;
32214;SDS011;18708;53.124;23.190;2022-11-15T04:00:16;51.83;;;30.10;;
32214;SDS011;18708;53.124;23.190;2022-11-15T04:02:42;50.42;;;29.55;;
32214;SDS011;18708;53.124;23.190;2022-11-15T04:05:08;56.58;;;33.88;;
32214;SDS011;18708;53.124;23.190;2022-11-15T04:07:34;59.00;;;32.80;;
32214;SDS011;18708;53.124;23.190;2022-11-15T04:09:59;53.67;;;30.83;;
32214;SDS011;18708;53.124;23.190;2022-11-15T04:15:01;59.30;;;34.03;;
32214;SDS011;18708;53.124;23.190;2022-11-15T04:17:41;57.75;;;33.13;;
32214;SDS011;18708;53.124;23.190;2022-11-15T04:20:29;58.00;;;32.60;;
32214;SDS011;18708;53.124;23.190;2022-11-15T04:23:19;58.38;;;32.70;;
32214;SDS011;18708;53.124;23.190;2022-11-15T04:28:35;58.38;;;32.33;;
32214;SDS011;18708;53.124;23.190;2022-11-15T04:31:21;60.05;;;32.03;;
32214;SDS011;18708;53.124;23.190;2022-11-15T04:33:47;60.20;;;33.50;;
32214;SDS011;18708;53.124;23.190;2022-11-15T04:36:12;53.92;;;32.03;;
32214;SDS011;18708;53.124;23.190;2022-11-15T04:38:56;58.50;;;33.40;;
32214;SDS011;18708;53.124;23.190;2022-11-15T04:41:22;60.08;;;34.65;;
32214;SDS011;18708;53.124;23.190;2022-11-15T04:43:48;68.28;;;40.42;;
32214;SDS011;18708;53.124;23.190;2022-11-15T04:46:13;59.45;;;33.60;;
32214;SDS011;18708;53.124;23.190;2022-11-15T04:48:39;57.80;;;33.35;;
32214;SDS011;18708;53.124;23.190;2022-11-15T04:51:04;56.40;;;32.20;;
32214;SDS011;18708;53.124;23.190;2022-11-15T04:53:30;52.47;;;31.02;;
32214;SDS011;18708;53.124;23.190;2022-11-15T04:55:56;54.08;;;30.92;;
32214;SDS011;18708;53.124;23.190;2022-11-15T04:58:21;65.47;;;37.40;;
32214;SDS011;18708;53.124;23.190;2022-11-15T05:00:47;59.40;;;32.78;;
32214;SDS011;18708;53.124;23.190;2022-11-15T05:03:12;56.13;;;31.40;;
32214;SDS011;18708;53.124;23.190;2022-11-15T05:05:57;53.30;;;30.55;;
32214;SDS011;18708;53.124;23.190;2022-11-15T05:08:23;53.28;;;31.17;;
32214;SDS011;18708;53.124;23.190;2022-11-15T05:10:49;57.70;;;33.50;;
32214;SDS011;18708;53.124;23.190;2022-11-15T05:13:15;52.28;;;31.30;;
32214;SDS011;18708;53.124;23.190;2022-11-15T05:15:40;48.42;;;29.33;;
32214;SDS011;18708;53.124;23.190;2022-11-15T05:18:06;49.63;;;28.70;;
32214;SDS011;18708;53.124;23.190;2022-11-15T05:20:32;48.38;;;29.42;;
32214;SDS011;18708;53.124;23.190;2022-11-15T05:22:59;49.47;;;29.95;;
32214;SDS011;18708;53.124;23.190;2022-11-15T05:25:25;49.65;;;29.08;;
32214;SDS011;18708;53.124;23.190;2022-11-15T05:27:51;49.72;;;29.85;;
32214;SDS011;18708;53.124;23.190;2022-11-15T05:30:17;51.70;;;29.88;;
32214;SDS011;18708;53.124;23.190;2022-11-15T05:32:43;51.28;;;30.48;;
32214;SDS011;18708;53.124;23.190;2022-11-15T05:35:14;50.90;;;30.90;;
32214;SDS011;18708;53.124;23.190;2022-11-15T05:37:55;55.55;;;31.23;;
32214;SDS011;18708;53.124;23.190;2022-11-15T05:40:21;48.75;;;29.10;;
32214;SDS011;18708;53.124;23.190;2022-11-15T05:42:47;46.95;;;28.83;;
32214;SDS011;18708;53.124;23.190;2022-11-15T05:45:13;48.72;;;30.17;;
32214;SDS011;18708;53.124;23.190;2022-11-15T05:47:39;52.55;;;29.48;;
32214;SDS011;18708;53.124;23.190;2022-11-15T05:50:05;48.45;;;29.48;;
32214;SDS011;18708;53.124;23.190;2022-11-15T05:52:32;48.00;;;28.33;;
32214;SDS011;18708;53.124;23.190;2022-11-15T05:55:00;46.92;;;27.77;;
32214;SDS011;18708;53.124;23.190;2022-11-15T05:57:27;46.00;;;27.75;;
32214;SDS011;18708;53.124;23.190;2022-11-15T05:59:53;45.75;;;28.35;;
32214;SDS011;18708;53.124;23.190;2022-11-15T06:02:20;46.33;;;29.27;;
32214;SDS011;18708;53.124;23.190;2022-11-15T06:04:45;42.40;;;27.25;;
32214;SDS011;18708;53.124;23.190;2022-11-15T06:07:11;45.03;;;27.52;;
32214;SDS011;18708;53.124;23.190;2022-11-15T06:09:39;41.33;;;26.45;;
32214;SDS011;18708;53.124;23.190;2022-11-15T06:12:04;44.03;;;28.73;;
32214;SDS011;18708;53.124;23.190;2022-11-15T06:14:30;45.75;;;28.95;;
32214;SDS011;18708;53.124;23.190;2022-11-15T06:16:56;46.60;;;29.40;;
32214;SDS011;18708;53.124;23.190;2022-11-15T06:19:21;39.55;;;25.65;;
32214;SDS011;18708;53.124;23.190;2022-11-15T06:21:47;41.22;;;26.90;;
32214;SDS011;18708;53.124;23.190;2022-11-15T06:24:13;38.17;;;25.90;;
32214;SDS011;18708;53.124;23.190;2022-11-15T06:26:38;39.58;;;25.25;;
32214;SDS011;18708;53.124;23.190;2022-11-15T06:29:04;40.15;;;25.25;;
32214;SDS011;18708;53.124;23.190;2022-11-15T06:31:30;44.78;;;26.45;;
32214;SDS011;18708;53.124;23.190;2022-11-15T06:33:56;41.55;;;27.10;;
32214;SDS011;18708;53.124;23.190;2022-11-15T06:36:24;45.30;;;25.48;;
32214;SDS011;18708;53.124;23.190;2022-11-15T06:38:49;44.13;;;24.73;;
32214;SDS011;18708;53.124;23.190;2022-11-15T06:41:15;44.83;;;26.83;;
32214;SDS011;18708;53.124;23.190;2022-11-15T06:43:42;46.50;;;26.52;;
32214;SDS011;18708;53.124;23.190;2022-11-15T06:46:08;43.03;;;27.10;;
32214;SDS011;18708;53.124;23.190;2022-11-15T06:48:34;44.15;;;26.13;;
32214;SDS011;18708;53.124;23.190;2022-11-15T06:51:01;44.42;;;25.98;;
32214;SDS011;18708;53.124;23.190;2022-11-15T06:53:28;42.95;;;26.63;;
32214;SDS011;18708;53.124;23.190;2022-11-15T06:55:58;49.72;;;28.60;;
32214;SDS011;18708;53.124;23.190;2022-11-15T06:58:27;46.75;;;27.02;;
32214;SDS011;18708;53.124;23.190;2022-11-15T07:00:57;50.17;;;29.23;;
32214;SDS011;18708;53.124;23.190;2022-11-15T07:03:24;49.35;;;29.08;;
32214;SDS011;18708;53.124;23.190;2022-11-15T07:05:51;45.75;;;27.65;;
32214;SDS011;18708;53.124;23.190;2022-11-15T07:08:21;50.33;;;28.17;;
32214;SDS011;18708;53.124;23.190;2022-11-15T07:10:47;45.50;;;28.00;;
32214;SDS011;18708;53.124;23.190;2022-11-15T07:13:13;51.90;;;29.98;;
32214;SDS011;18708;53.124;23.190;2022-11-15T07:15:39;50.75;;;28.63;;
32214;SDS011;18708;53.124;23.190;2022-11-15T07:18:04;52.58;;;30.38;;
32214;SDS011;18708;53.124;23.190;2022-11-15T07:20:30;57.22;;;32.70;;
32214;SDS011;18708;53.124;23.190;2022-11-15T07:22:59;58.92;;;33.45;;
32214;SDS011;18708;53.124;23.190;2022-11-15T07:25:26;59.65;;;32.80;;
32214;SDS011;18708;53.124;23.190;2022-11-15T07:27:56;58.47;;;32.42;;
32214;SDS011;18708;53.124;23.190;2022-11-15T07:30:22;57.22;;;32.80;;
32214;SDS011;18708;53.124;23.190;2022-11-15T07:32:52;57.03;;;32.30;;
32214;SDS011;18708;53.124;23.190;2022-11-15T07:35:19;58.97;;;31.80;;
32214;SDS011;18708;53.124;23.190;2022-11-15T07:37:54;55.60;;;31.73;;
32214;SDS011;18708;53.124;23.190;2022-11-15T07:40:25;62.85;;;36.58;;
32214;SDS011;18708;53.124;23.190;2022-11-15T07:42:58;66.90;;;36.05;;
32214;SDS011;18708;53.124;23.190;2022-11-15T07:45:28;68.00;;;36.10;;
32214;SDS011;18708;53.124;23.190;2022-11-15T07:47:54;64.80;;;35.65;;
32214;SDS011;18708;53.124;23.190;2022-11-15T07:50:21;70.28;;;36.50;;
32214;SDS011;18708;53.124;23.190;2022-11-15T07:52:52;68.13;;;35.17;;
32214;SDS011;18708;53.124;23.190;2022-11-15T07:55:22;69.57;;;35.47;;
32214;SDS011;18708;53.124;23.190;2022-11-15T07:57:48;70.47;;;36.97;;
32214;SDS011;18708;53.124;23.190;2022-11-15T08:00:14;67.53;;;35.85;;
32214;SDS011;18708;53.124;23.190;2022-11-15T08:02:40;69.07;;;37.25;;
32214;SDS011;18708;53.124;23.190;2022-11-15T08:05:08;73.60;;;36.67;;
32214;SDS011;18708;53.124;23.190;2022-11-15T08:07:34;67.47;;;36.22;;
32214;SDS011;18708;53.124;23.190;2022-11-15T08:10:00;73.45;;;38.47;;
32214;SDS011;18708;53.124;23.190;2022-11-15T08:12:26;71.88;;;37.33;;
32214;SDS011;18708;53.124;23.190;2022-11-15T08:14:54;76.85;;;38.10;;
32214;SDS011;18708;53.124;23.190;2022-11-15T08:17:21;70.00;;;36.13;;
32214;SDS011;18708;53.124;23.190;2022-11-15T08:19:48;71.88;;;37.63;;
32214;SDS011;18708;53.124;23.190;2022-11-15T08:22:16;73.18;;;38.83;;
32214;SDS011;18708;53.124;23.190;2022-11-15T08:24:42;72.82;;;38.22;;
32214;SDS011;18708;53.124;23.190;2022-11-15T08:27:09;73.30;;;37.53;;
32214;SDS011;18708;53.124;23.190;2022-11-15T08:29:40;70.60;;;36.65;;
32214;SDS011;18708;53.124;23.190;2022-11-15T08:32:06;81.65;;;43.15;;
32214;SDS011;18708;53.124;23.190;2022-11-15T08:34:32;103.43;;;59.00;;
32214;SDS011;18708;53.124;23.190;2022-11-15T08:36:58;82.43;;;44.70;;
32214;SDS011;18708;53.124;23.190;2022-11-15T08:39:23;106.07;;;60.97;;
32214;SDS011;18708;53.124;23.190;2022-11-15T08:41:51;98.40;;;56.85;;
32214;SDS011;18708;53.124;23.190;2022-11-15T08:44:17;81.93;;;44.05;;
32214;SDS011;18708;53.124;23.190;2022-11-15T08:46:45;66.95;;;36.10;;
32214;SDS011;18708;53.124;23.190;2022-11-15T08:49:12;61.83;;;35.20;;
32214;SDS011;18708;53.124;23.190;2022-11-15T08:51:38;65.47;;;33.45;;
32214;SDS011;18708;53.124;23.190;2022-11-15T08:54:04;59.92;;;33.67;;
32214;SDS011;18708;53.124;23.190;2022-11-15T08:56:29;59.30;;;31.95;;
32214;SDS011;18708;53.124;23.190;2022-11-15T08:58:55;60.63;;;32.60;;
32214;SDS011;18708;53.124;23.190;2022-11-15T09:01:21;69.28;;;32.50;;
32214;SDS011;18708;53.124;23.190;2022-11-15T09:03:47;76.28;;;36.03;;
32214;SDS011;18708;53.124;23.190;2022-11-15T09:06:13;77.18;;;41.13;;
32214;SDS011;18708;53.124;23.190;2022-11-15T09:08:39;70.78;;;38.15;;
32214;SDS011;18708;53.124;23.190;2022-11-15T09:11:06;78.00;;;39.22;;
32214;SDS011;18708;53.124;23.190;2022-11-15T09:13:34;73.60;;;37.28;;
32214;SDS011;18708;53.124;23.190;2022-11-15T09:16:02;63.58;;;32.80;;
32214;SDS011;18708;53.124;23.190;2022-11-15T09:18:28;64.75;;;32.45;;
32214;SDS011;18708;53.124;23.190;2022-11-15T09:20:55;65.18;;;33.65;;
32214;SDS011;18708;53.124;23.190;2022-11-15T09:23:24;74.38;;;34.03;;
32214;SDS011;18708;53.124;23.190;2022-11-15T09:25:50;68.18;;;33.78;;
32214;SDS011;18708;53.124;23.190;2022-11-15T09:28:16;64.18;;;33.65;;
32214;SDS011;18708;53.124;23.190;2022-11-15T09:30:42;72.30;;;35.70;;
32214;SDS011;18708;53.124;23.190;2022-11-15T09:33:08;70.05;;;35.35;;
32214;SDS011;18708;53.124;23.190;2022-11-15T09:35:35;71.30;;;36.50;;
32214;SDS011;18708;53.124;23.190;2022-11-15T09:38:01;65.97;;;35.08;;
32214;SDS011;18708;53.124;23.190;2022-11-15T09:40:27;80.03;;;35.45;;
32214;SDS011;18708;53.124;23.190;2022-11-15T09:53:59;62.90;;;31.20;;
32214;SDS011;18708;53.124;23.190;2022-11-15T09:56:33;68.93;;;31.85;;
32214;SDS011;18708;53.124;23.190;2022-11-15T10:04:48;60.17;;;32.47;;
32214;SDS011;18708;53.124;23.190;2022-11-15T10:07:28;64.97;;;32.35;;
32214;SDS011;18708;53.124;23.190;2022-11-15T10:10:14;62.95;;;33.17;;
32214;SDS011;18708;53.124;23.190;2022-11-15T10:12:43;69.50;;;33.63;;
32214;SDS011;18708;53.124;23.190;2022-11-15T10:15:14;62.17;;;31.77;;
32214;SDS011;18708;53.124;23.190;2022-11-15T10:17:55;64.80;;;34.15;;
32214;SDS011;18708;53.124;23.190;2022-11-15T10:23:22;63.38;;;31.05;;
32214;SDS011;18708;53.124;23.190;2022-11-15T10:25:55;58.13;;;31.05;;
32214;SDS011;18708;53.124;23.190;2022-11-15T10:28:30;66.53;;;33.00;;
32214;SDS011;18708;53.124;23.190;2022-11-15T10:30:57;67.22;;;35.15;;
32214;SDS011;18708;53.124;23.190;2022-11-15T10:41:19;69.68;;;36.33;;
32214;SDS011;18708;53.124;23.190;2022-11-15T10:46:37;75.63;;;38.58;;
32214;SDS011;18708;53.124;23.190;2022-11-15T10:49:21;85.20;;;45.17;;
32214;SDS011;18708;53.124;23.190;2022-11-15T10:57:15;80.97;;;41.15;;
32214;SDS011;18708;53.124;23.190;2022-11-15T11:00:04;77.60;;;39.97;;
32214;SDS011;18708;53.124;23.190;2022-11-15T11:02:56;72.97;;;39.20;;
32214;SDS011;18708;53.124;23.190;2022-11-15T11:10:37;162.77;;;80.57;;
32214;SDS011;18708;53.124;23.190;2022-11-15T11:18:31;116.05;;;52.45;;
32214;SDS011;18708;53.124;23.190;2022-11-15T11:21:05;90.78;;;44.13;;
32214;SDS011;18708;53.124;23.190;2022-11-15T11:23:41;75.70;;;39.70;;
32214;SDS011;18708;53.124;23.190;2022-11-15T11:45:57;64.80;;;34.53;;
32214;SDS011;18708;53.124;23.190;2022-11-15T11:48:52;70.47;;;36.42;;
32214;SDS011;18708;53.124;23.190;2022-11-15T11:51:34;72.65;;;36.40;;
32214;SDS011;18708;53.124;23.190;2022-11-15T11:56:39;79.45;;;39.95;;
32214;SDS011;18708;53.124;23.190;2022-11-15T12:02:14;70.68;;;36.05;;
32214;SDS011;18708;53.124;23.190;2022-11-15T12:08:04;103.40;;;52.22;;
32214;SDS011;18708;53.124;23.190;2022-11-15T12:10:40;81.95;;;43.00;;
32214;SDS011;18708;53.124;23.190;2022-11-15T12:13:21;78.47;;;36.92;;
32214;SDS011;18708;53.124;23.190;2022-11-15T12:15:53;73.97;;;34.95;;
32214;SDS011;18708;53.124;23.190;2022-11-15T12:18:26;67.90;;;32.63;;
32214;SDS011;18708;53.124;23.190;2022-11-15T12:20:57;72.85;;;35.33;;
32214;SDS011;18708;53.124;23.190;2022-11-15T12:23:37;70.43;;;34.97;;
32214;SDS011;18708;53.124;23.190;2022-11-15T12:26:11;69.13;;;33.28;;
32214;SDS011;18708;53.124;23.190;2022-11-15T12:34:02;63.90;;;32.42;;
32214;SDS011;18708;53.124;23.190;2022-11-15T12:36:39;64.03;;;31.73;;
32214;SDS011;18708;53.124;23.190;2022-11-15T12:39:08;65.63;;;32.38;;
32214;SDS011;18708;53.124;23.190;2022-11-15T12:41:38;65.07;;;31.98;;
32214;SDS011;18708;53.124;23.190;2022-11-15T12:44:12;71.88;;;34.75;;
32214;SDS011;18708;53.124;23.190;2022-11-15T12:47:22;75.65;;;36.72;;
32214;SDS011;18708;53.124;23.190;2022-11-15T12:49:49;73.47;;;35.58;;
32214;SDS011;18708;53.124;23.190;2022-11-15T12:52:15;76.03;;;34.00;;
32214;SDS011;18708;53.124;23.190;2022-11-15T12:59:52;73.00;;;36.67;;
32214;SDS011;18708;53.124;23.190;2022-11-15T13:02:35;79.97;;;34.10;;
32214;SDS011;18708;53.124;23.190;2022-11-15T13:17:36;66.20;;;30.98;;
32214;SDS011;18708;53.124;23.190;2022-11-15T13:22:42;68.90;;;32.83;;
32214;SDS011;18708;53.124;23.190;2022-11-15T13:27:58;65.75;;;30.65;;
32214;SDS011;18708;53.124;23.190;2022-11-15T13:30:30;68.10;;;30.10;;
32214;SDS011;18708;53.124;23.190;2022-11-15T13:32:57;65.10;;;28.80;;
32214;SDS011;18708;53.124;23.190;2022-11-15T13:35:30;62.22;;;29.15;;
32214;SDS011;18708;53.124;23.190;2022-11-15T13:37:59;64.32;;;28.35;;
32214;SDS011;18708;53.124;23.190;2022-11-15T13:40:33;61.58;;;29.30;;
32214;SDS011;18708;53.124;23.190;2022-11-15T13:43:14;59.10;;;28.95;;
32214;SDS011;18708;53.124;23.190;2022-11-15T13:48:43;89.18;;;41.03;;
32214;SDS011;18708;53.124;23.190;2022-11-15T13:51:27;73.75;;;33.38;;
32214;SDS011;18708;53.124;23.190;2022-11-15T13:56:50;67.35;;;30.13;;
32214;SDS011;18708;53.124;23.190;2022-11-15T13:59:26;107.32;;;46.58;;
32214;SDS011;18708;53.124;23.190;2022-11-15T14:01:54;73.68;;;31.85;;
32214;SDS011;18708;53.124;23.190;2022-11-15T14:04:23;78.43;;;36.72;;
32214;SDS011;18708;53.124;23.190;2022-11-15T14:06:55;48.78;;;23.45;;
32214;SDS011;18708;53.124;23.190;2022-11-15T14:11:59;40.25;;;20.23;;
32214;SDS011;18708;53.124;23.190;2022-11-15T14:14:27;46.92;;;24.20;;
32214;SDS011;18708;53.124;23.190;2022-11-15T14:16:54;43.33;;;23.08;;
32214;SDS011;18708;53.124;23.190;2022-11-15T14:24:35;254.10;;;108.88;;
32214;SDS011;18708;53.124;23.190;2022-11-15T14:29:50;39.35;;;21.30;;
32214;SDS011;18708;53.124;23.190;2022-11-15T14:32:20;39.80;;;20.85;;
32214;SDS011;18708;53.124;23.190;2022-11-15T14:34:49;43.92;;;23.77;;
32214;SDS011;18708;53.124;23.190;2022-11-15T14:39:52;46.08;;;23.38;;
32214;SDS011;18708;53.124;23.190;2022-11-15T14:42:18;41.08;;;21.55;;
32214;SDS011;18708;53.124;23.190;2022-11-15T14:44:44;41.83;;;22.20;;
32214;SDS011;18708;53.124;23.190;2022-11-15T14:47:10;46.65;;;22.10;;
32214;SDS011;18708;53.124;23.190;2022-11-15T14:49:36;49.58;;;21.55;;
32214;SDS011;18708;53.124;23.190;2022-11-15T14:52:01;42.42;;;22.10;;
32214;SDS011;18708;53.124;23.190;2022-11-15T14:54:30;42.10;;;21.63;;
32214;SDS011;18708;53.124;23.190;2022-11-15T14:56:55;36.20;;;20.38;;
32214;SDS011;18708;53.124;23.190;2022-11-15T14:59:21;38.10;;;20.60;;
32214;SDS011;18708;53.124;23.190;2022-11-15T15:01:46;47.38;;;25.40;;
32214;SDS011;18708;53.124;23.190;2022-11-15T15:04:12;41.17;;;23.17;;
32214;SDS011;18708;53.124;23.190;2022-11-15T15:06:37;42.95;;;23.40;;
32214;SDS011;18708;53.124;23.190;2022-11-15T15:09:04;45.15;;;26.83;;
32214;SDS011;18708;53.124;23.190;2022-11-15T15:11:30;42.75;;;22.80;;
32214;SDS011;18708;53.124;23.190;2022-11-15T15:13:57;37.13;;;19.45;;
32214;SDS011;18708;53.124;23.190;2022-11-15T15:16:26;39.72;;;20.17;;
32214;SDS011;18708;53.124;23.190;2022-11-15T15:18:52;39.63;;;19.60;;
32214;SDS011;18708;53.124;23.190;2022-11-15T15:21:22;32.30;;;18.98;;
32214;SDS011;18708;53.124;23.190;2022-11-15T15:23:50;31.13;;;17.90;;
32214;SDS011;18708;53.124;23.190;2022-11-15T15:26:16;34.60;;;19.27;;
32214;SDS011;18708;53.124;23.190;2022-11-15T15:28:42;36.55;;;21.42;;
32214;SDS011;18708;53.124;23.190;2022-11-15T15:31:09;49.67;;;31.98;;
32214;SDS011;18708;53.124;23.190;2022-11-15T15:33:36;33.33;;;19.42;;
32214;SDS011;18708;53.124;23.190;2022-11-15T15:36:02;45.30;;;26.20;;
32214;SDS011;18708;53.124;23.190;2022-11-15T15:38:28;46.38;;;30.20;;
32214;SDS011;18708;53.124;23.190;2022-11-15T15:40:54;30.00;;;18.27;;
32214;SDS011;18708;53.124;23.190;2022-11-15T15:43:20;37.97;;;22.58;;
32214;SDS011;18708;53.124;23.190;2022-11-15T15:45:45;40.05;;;24.35;;
32214;SDS011;18708;53.124;23.190;2022-11-15T15:48:15;38.25;;;22.98;;
32214;SDS011;18708;53.124;23.190;2022-11-15T15:50:42;35.55;;;20.00;;
32214;SDS011;18708;53.124;23.190;2022-11-15T15:53:08;43.67;;;24.58;;
32214;SDS011;18708;53.124;23.190;2022-11-15T15:55:37;50.78;;;29.58;;
32214;SDS011;18708;53.124;23.190;2022-11-15T15:58:03;48.60;;;25.40;;
32214;SDS011;18708;53.124;23.190;2022-11-15T16:00:30;84.38;;;44.28;;
32214;SDS011;18708;53.124;23.190;2022-11-15T16:02:58;81.85;;;49.72;;
32214;SDS011;18708;53.124;23.190;2022-11-15T16:05:26;71.70;;;45.17;;
32214;SDS011;18708;53.124;23.190;2022-11-15T16:07:52;38.55;;;22.63;;
32214;SDS011;18708;53.124;23.190;2022-11-15T16:10:24;35.42;;;22.38;;
32214;SDS011;18708;53.124;23.190;2022-11-15T16:12:52;30.15;;;18.33;;
32214;SDS011;18708;53.124;23.190;2022-11-15T16:15:19;30.98;;;18.40;;
32214;SDS011;18708;53.124;23.190;2022-11-15T16:17:55;27.85;;;15.05;;
32214;SDS011;18708;53.124;23.190;2022-11-15T16:20:41;28.45;;;15.48;;
32214;SDS011;18708;53.124;23.190;2022-11-15T16:23:13;26.85;;;14.45;;
32214;SDS011;18708;53.124;23.190;2022-11-15T16:25:47;25.63;;;14.75;;
32214;SDS011;18708;53.124;23.190;2022-11-15T16:30:49;25.13;;;14.80;;
32214;SDS011;18708;53.124;23.190;2022-11-15T16:33:24;28.63;;;14.93;;
32214;SDS011;18708;53.124;23.190;2022-11-15T16:35:50;28.85;;;16.23;;
32214;SDS011;18708;53.124;23.190;2022-11-15T16:38:15;32.33;;;18.23;;
32214;SDS011;18708;53.124;23.190;2022-11-15T16:40:42;32.58;;;17.80;;
32214;SDS011;18708;53.124;23.190;2022-11-15T16:43:08;27.73;;;16.08;;
32214;SDS011;18708;53.124;23.190;2022-11-15T16:45:34;28.13;;;16.45;;
32214;SDS011;18708;53.124;23.190;2022-11-15T16:48:00;28.92;;;15.38;;
32214;SDS011;18708;53.124;23.190;2022-11-15T16:50:27;35.08;;;23.58;;
32214;SDS011;18708;53.124;23.190;2022-11-15T16:52:56;34.20;;;18.27;;
32214;SDS011;18708;53.124;23.190;2022-11-15T16:55:24;26.80;;;15.98;;
32214;SDS011;18708;53.124;23.190;2022-11-15T16:57:52;33.83;;;18.92;;
32214;SDS011;18708;53.124;23.190;2022-11-15T17:00:19;28.33;;;16.60;;
32214;SDS011;18708;53.124;23.190;2022-11-15T17:02:46;28.60;;;15.93;;
32214;SDS011;18708;53.124;23.190;2022-11-15T17:05:13;32.15;;;18.27;;